createdAt,value
2022-10-03T00:00:23.203Z,10.70
2022-10-03T00:03:48.068Z,10.80
2022-10-03T00:06:44.308Z,10.80
2022-10-03T00:09:32.814Z,10.70
2022-10-03T00:12:33.024Z,10.70
2022-10-03T00:15:14.014Z,10.60
2022-10-03T00:18:03.145Z,10.70
2022-10-03T00:21:12.014Z,10.70
2022-10-03T00:23:45.335Z,10.60
2022-10-03T00:26:28.368Z,10.70
2022-10-03T00:29:16.378Z,10.70
2022-10-03T00:31:54.061Z,10.70
2022-10-03T00:34:44.708Z,10.70
2022-10-03T00:37:25.679Z,10.60
2022-10-03T00:40:18.314Z,10.60
2022-10-03T00:43:06.129Z,10.50
2022-10-03T00:46:06.255Z,10.50
2022-10-03T00:48:56.392Z,10.60
2022-10-03T00:51:36.819Z,10.60
2022-10-03T00:54:29.201Z,10.50
2022-10-03T00:57:09.648Z,10.40
2022-10-03T00:59:49.628Z,10.40
2022-10-03T01:02:52.527Z,10.40
2022-10-03T01:05:41.582Z,10.30
2022-10-03T01:08:38.120Z,10.30
2022-10-03T01:11:40.158Z,10.20
2022-10-03T01:14:36.014Z,10.20
2022-10-03T01:17:10.787Z,10.20
2022-10-03T01:20:03.520Z,10.10
2022-10-03T01:22:54.772Z,10.10
2022-10-03T01:25:49.564Z,10.10
2022-10-03T01:29:01.009Z,10.10
2022-10-03T01:31:53.010Z,10.10
2022-10-03T01:34:49.465Z,9.90
2022-10-03T01:37:24.696Z,9.90
2022-10-03T01:40:21.547Z,9.90
2022-10-03T01:42:58.239Z,9.80
2022-10-03T01:45:55.724Z,9.80
2022-10-03T01:48:23.256Z,9.80
2022-10-03T01:51:03.699Z,9.70
2022-10-03T01:54:15.097Z,9.70
2022-10-03T01:57:01.716Z,9.60
2022-10-03T01:59:47.557Z,9.60
2022-10-03T02:02:21.102Z,9.50
2022-10-03T02:04:57.878Z,9.30
2022-10-03T02:07:41.410Z,9.30
2022-10-03T02:10:08.975Z,9.20
2022-10-03T02:13:05.676Z,9.20
2022-10-03T02:15:54.606Z,9.30
2022-10-03T02:18:46.262Z,9.20
2022-10-03T02:21:27.020Z,9.20
2022-10-03T02:24:16.494Z,9.20
2022-10-03T02:27:05.509Z,9.10
2022-10-03T02:29:39.104Z,9.10
2022-10-03T02:32:46.033Z,9.10
2022-10-03T02:35:41.654Z,9.10
2022-10-03T02:38:26.653Z,8.80
2022-10-03T02:41:04.382Z,8.90
2022-10-03T02:43:50.588Z,8.90
2022-10-03T02:47:01.260Z,8.80
2022-10-03T02:49:50.009Z,8.60
2022-10-03T02:52:55.548Z,8.70
2022-10-03T02:55:37.831Z,8.70
2022-10-03T02:58:18.262Z,8.80
2022-10-03T03:01:13.241Z,8.70
2022-10-03T03:04:08.961Z,8.50
2022-10-03T03:07:11.300Z,8.60
2022-10-03T03:09:54.042Z,8.60
2022-10-03T03:12:24.743Z,8.50
2022-10-03T03:15:29.589Z,8.50
2022-10-03T03:18:18.633Z,8.50
2022-10-03T03:21:14.243Z,8.30
2022-10-03T03:23:51.244Z,8.40
2022-10-03T03:26:30.777Z,8.50
2022-10-03T03:29:25.719Z,8.50
2022-10-03T03:31:56.510Z,8.40
2022-10-03T03:35:13.181Z,8.40
2022-10-03T03:37:52.445Z,8.30
2022-10-03T03:40:46.042Z,8.30
2022-10-03T03:43:34.511Z,8.40
2022-10-03T03:46:39.697Z,8.40
2022-10-03T03:49:59.269Z,8.40
2022-10-03T03:52:39.438Z,8.50
2022-10-03T03:55:16.029Z,8.50
2022-10-03T03:57:49.811Z,8.40
2022-10-03T04:00:31.477Z,8.40
2022-10-03T04:03:07.994Z,8.50
2022-10-03T04:05:54.758Z,8.50
2022-10-03T04:08:37.345Z,8.50
2022-10-03T04:11:33.142Z,8.40
2022-10-03T04:14:34.992Z,8.40
2022-10-03T04:17:48.726Z,8.50
2022-10-03T04:20:34.998Z,8.40
2022-10-03T04:23:02.570Z,8.40
2022-10-03T04:26:07.633Z,8.40
2022-10-03T04:29:23.233Z,8.50
2022-10-03T04:31:59.360Z,8.50
2022-10-03T04:35:03.978Z,8.40
2022-10-03T04:37:48.637Z,8.40
2022-10-03T04:40:57.920Z,8.40
2022-10-03T04:43:35.403Z,8.40
2022-10-03T04:46:39.654Z,8.50
2022-10-03T04:49:26.736Z,8.40
2022-10-03T04:52:07.142Z,8.60
2022-10-03T04:55:11.112Z,8.50
2022-10-03T04:58:05.097Z,8.50
2022-10-03T05:00:57.498Z,8.50
2022-10-03T05:03:41.720Z,8.40
2022-10-03T05:06:32.388Z,8.50
2022-10-03T05:09:17.450Z,8.50
2022-10-03T05:12:06.389Z,8.50
2022-10-03T05:14:42.963Z,8.40
2022-10-03T05:17:30.652Z,8.50
2022-10-03T05:20:47.333Z,8.50
2022-10-03T05:23:42.919Z,8.50
2022-10-03T05:26:47.762Z,8.50
2022-10-03T05:29:18.184Z,8.40
2022-10-03T05:32:15.279Z,8.50
2022-10-03T05:34:58.876Z,8.40
2022-10-03T05:37:35.699Z,8.30
2022-10-03T05:40:27.983Z,8.30
2022-10-03T05:43:04.259Z,8.40
2022-10-03T05:45:43.129Z,8.40
2022-10-03T05:48:28.729Z,8.50
2022-10-03T05:51:23.389Z,8.50
2022-10-03T05:54:39.957Z,8.50
2022-10-03T05:57:49.209Z,8.50
2022-10-03T06:00:20.722Z,8.40
2022-10-03T06:03:18.304Z,8.40
2022-10-03T06:06:01.118Z,8.50
2022-10-03T06:08:48.508Z,8.40
2022-10-03T06:11:22.506Z,8.60
2022-10-03T06:14:14.610Z,9.00
2022-10-03T06:17:06.923Z,9.40
2022-10-03T06:19:49.826Z,9.90
2022-10-03T06:22:32.840Z,9.90
2022-10-03T06:25:28.548Z,10.10
2022-10-03T06:28:34.138Z,10.30
2022-10-03T06:31:11.489Z,10.20
2022-10-03T06:34:09.095Z,10.40
2022-10-03T06:37:06.252Z,10.50
2022-10-03T06:40:18.182Z,10.50
2022-10-03T06:43:13.087Z,10.50
2022-10-03T06:46:19.503Z,10.50
2022-10-03T06:49:04.852Z,10.50
2022-10-03T06:51:59.071Z,10.70
2022-10-03T06:54:44.745Z,10.80
2022-10-03T06:57:55.455Z,10.70
2022-10-03T07:00:52.755Z,10.80
2022-10-03T07:03:53.870Z,10.90
2022-10-03T07:07:01.941Z,10.90
2022-10-03T07:09:48.492Z,10.90
2022-10-03T07:12:16.959Z,11.10
2022-10-03T07:15:04.988Z,11.20
2022-10-03T07:18:06.330Z,11.20
2022-10-03T07:20:58.779Z,11.30
2022-10-03T07:23:31.878Z,11.30
2022-10-03T07:26:18.106Z,11.40
2022-10-03T07:28:45.586Z,11.50
2022-10-03T07:31:42.569Z,11.60
2022-10-03T07:34:29.398Z,11.50
2022-10-03T07:37:15.638Z,11.60
2022-10-03T07:40:02.049Z,11.70
2022-10-03T07:43:01.834Z,11.70
2022-10-03T07:45:59.055Z,11.70
2022-10-03T07:49:04.012Z,11.70
2022-10-03T07:52:01.175Z,11.80
2022-10-03T07:54:49.065Z,11.90
2022-10-03T07:57:27.966Z,11.90
2022-10-03T08:00:25.758Z,12.00
2022-10-03T08:03:12.621Z,12.10
2022-10-03T08:06:03.627Z,12.10
2022-10-03T08:09:03.231Z,12.00
2022-10-03T08:11:53.046Z,12.00
2022-10-03T08:14:29.871Z,12.10
2022-10-03T08:17:03.054Z,12.10
2022-10-03T08:20:00.946Z,12.10
2022-10-03T08:22:42.557Z,12.20
2022-10-03T08:25:58.159Z,12.20
2022-10-03T08:28:41.785Z,12.30
2022-10-03T08:31:43.742Z,12.40
2022-10-03T08:34:17.351Z,12.50
2022-10-03T08:36:54.652Z,12.50
2022-10-03T08:39:34.117Z,12.60
2022-10-03T08:42:39.326Z,12.70
2022-10-03T08:45:37.726Z,12.80
2022-10-03T08:48:27.046Z,12.70
2022-10-03T08:51:00.541Z,12.50
2022-10-03T08:54:02.676Z,12.50
2022-10-03T08:56:55.162Z,12.60
2022-10-03T08:59:47.704Z,12.90
2022-10-03T09:02:30.236Z,12.90
2022-10-03T09:05:16.736Z,12.90
2022-10-03T09:08:05.931Z,12.90
2022-10-03T09:10:55.262Z,13.10
2022-10-03T09:13:50.813Z,13.20
2022-10-03T09:16:52.087Z,13.20
2022-10-03T09:19:52.328Z,13.10
2022-10-03T09:22:34.807Z,13.20
2022-10-03T09:25:08.084Z,13.40
2022-10-03T09:28:14.576Z,13.50
2022-10-03T09:31:14.372Z,13.40
2022-10-03T09:34:24.442Z,13.40
2022-10-03T09:37:14.822Z,13.50
2022-10-03T09:40:18.357Z,13.60
2022-10-03T09:43:13.623Z,13.70
2022-10-03T09:46:09.081Z,13.70
2022-10-03T09:48:57.374Z,13.90
2022-10-03T09:52:05.526Z,13.90
2022-10-03T09:54:44.390Z,13.80
2022-10-03T09:57:48.145Z,14.00
2022-10-03T10:00:45.345Z,14.20
2022-10-03T10:03:42.341Z,14.40
2022-10-03T10:06:24.832Z,14.50
2022-10-03T10:09:17.399Z,14.60
2022-10-03T10:12:18.878Z,14.50
2022-10-03T10:15:11.327Z,14.60
2022-10-03T10:18:07.946Z,14.80
2022-10-03T10:21:06.244Z,14.80
2022-10-03T10:23:38.175Z,14.80
2022-10-03T10:26:09.876Z,14.50
2022-10-03T10:28:52.854Z,14.50
2022-10-03T10:31:59.951Z,14.50
2022-10-03T10:34:57.744Z,14.50
2022-10-03T10:37:46.353Z,14.60
2022-10-03T10:40:51.489Z,14.50
2022-10-03T10:43:51.039Z,14.80
2022-10-03T10:46:56.487Z,15.00
2022-10-03T10:49:52.158Z,15.20
2022-10-03T10:52:57.844Z,15.00
2022-10-03T10:56:06.594Z,15.00
2022-10-03T10:59:11.610Z,15.10
2022-10-03T11:02:08.769Z,15.10
2022-10-03T11:05:13.786Z,15.50
2022-10-03T11:08:18.883Z,15.90
2022-10-03T11:11:25.160Z,16.10
2022-10-03T11:14:30.982Z,16.40
2022-10-03T11:17:13.646Z,16.90
2022-10-03T11:20:13.164Z,17.80
2022-10-03T11:23:04.511Z,17.30
2022-10-03T11:26:09.531Z,17.10
2022-10-03T11:29:01.747Z,16.90
2022-10-03T11:32:08.391Z,17.10
2022-10-03T11:35:22.548Z,17.70
2022-10-03T11:38:08.209Z,17.60
2022-10-03T11:40:40.226Z,18.00
2022-10-03T11:43:25.639Z,18.20
2022-10-03T11:46:19.716Z,18.50
2022-10-03T11:49:01.986Z,18.20
2022-10-03T11:51:55.504Z,17.70
2022-10-03T11:54:32.009Z,18.20
2022-10-03T11:57:15.380Z,18.70
2022-10-03T12:00:05.594Z,18.80
2022-10-03T12:03:13.870Z,18.30
2022-10-03T12:06:14.010Z,16.60
2022-10-03T12:09:05.271Z,16.40
2022-10-03T12:11:58.809Z,16.10
2022-10-03T12:14:51.144Z,15.90
2022-10-03T12:17:32.133Z,15.60
2022-10-03T12:20:24.952Z,15.90
2022-10-03T12:23:17.361Z,15.70
2022-10-03T12:25:48.779Z,15.90
2022-10-03T12:28:24.134Z,15.60
2022-10-03T12:30:56.639Z,15.80
2022-10-03T12:33:48.454Z,16.00
2022-10-03T12:36:46.535Z,16.00
2022-10-03T12:39:48.430Z,16.10
2022-10-03T12:42:30.895Z,16.20
2022-10-03T12:45:19.336Z,15.90
2022-10-03T12:47:55.747Z,15.70
2022-10-03T12:51:08.370Z,15.20
2022-10-03T12:54:13.737Z,15.50
2022-10-03T12:56:59.951Z,15.30
2022-10-03T12:59:59.810Z,15.50
2022-10-03T13:02:39.839Z,15.80
2022-10-03T13:05:23.718Z,15.40
2022-10-03T13:07:58.045Z,15.50
2022-10-03T13:10:54.942Z,15.70
2022-10-03T13:13:53.966Z,15.30
2022-10-03T13:16:30.297Z,15.50
2022-10-03T13:19:20.542Z,15.30
2022-10-03T13:22:26.111Z,15.50
2022-10-03T13:25:21.907Z,15.20
2022-10-03T13:28:18.888Z,15.10
2022-10-03T13:31:17.922Z,15.10
2022-10-03T13:33:51.611Z,15.00
2022-10-03T13:36:34.886Z,15.00
2022-10-03T13:39:23.873Z,15.00
2022-10-03T13:42:22.596Z,15.10
2022-10-03T13:44:57.424Z,15.10
2022-10-03T13:47:40.399Z,15.40
2022-10-03T13:50:18.753Z,15.30
2022-10-03T13:52:55.551Z,15.20
2022-10-03T13:55:58.686Z,15.00
2022-10-03T13:58:44.515Z,14.80
2022-10-03T14:01:43.501Z,14.60
2022-10-03T14:04:17.774Z,14.70
2022-10-03T14:07:09.630Z,14.80
2022-10-03T14:09:39.049Z,15.00
2022-10-03T14:12:28.240Z,14.90
2022-10-03T14:15:11.537Z,14.80
2022-10-03T14:17:57.047Z,14.70
2022-10-03T14:20:58.631Z,14.60
2022-10-03T14:23:48.623Z,14.70
2022-10-03T14:26:29.568Z,14.70
2022-10-03T14:29:42.838Z,14.70
2022-10-03T14:32:45.535Z,14.80
2022-10-03T14:35:27.076Z,14.70
2022-10-03T14:38:15.300Z,14.60
2022-10-03T14:40:48.189Z,14.70
2022-10-03T14:43:45.998Z,14.50
2022-10-03T14:46:15.961Z,14.40
2022-10-03T14:48:50.221Z,14.30
2022-10-03T14:51:26.820Z,14.30
2022-10-03T14:54:02.760Z,14.40
2022-10-03T14:56:35.186Z,14.30
2022-10-03T14:59:19.071Z,14.10
2022-10-03T15:01:52.121Z,14.10
2022-10-03T15:04:34.059Z,14.00
2022-10-03T15:07:03.647Z,14.00
2022-10-03T15:09:40.225Z,13.90
2022-10-03T15:12:17.138Z,13.70
2022-10-03T15:14:49.819Z,13.70
2022-10-03T15:17:30.511Z,13.50
2022-10-03T15:20:01.182Z,13.20
2022-10-03T15:22:39.675Z,13.10
2022-10-03T15:25:22.595Z,13.00
2022-10-03T15:27:54.179Z,12.90
2022-10-03T15:30:25.790Z,12.80
2022-10-03T15:33:16.633Z,12.70
2022-10-03T15:35:48.458Z,12.70
2022-10-03T15:38:26.412Z,12.70
2022-10-03T15:41:14.581Z,12.70
2022-10-03T15:44:04.956Z,12.60
2022-10-03T15:46:44.950Z,12.50
2022-10-03T15:49:36.768Z,12.50
2022-10-03T15:52:15.958Z,12.40
2022-10-03T15:54:48.948Z,12.40
2022-10-03T15:57:24.488Z,12.40
2022-10-03T15:59:57.243Z,12.40
2022-10-03T16:02:35.074Z,12.30
2022-10-03T16:05:24.510Z,12.20
2022-10-03T16:08:01.822Z,12.20
2022-10-03T16:10:45.355Z,12.20
2022-10-03T16:13:36.215Z,12.10
2022-10-03T16:16:17.781Z,12.00
2022-10-03T16:18:53.799Z,12.10
2022-10-03T16:21:45.005Z,12.00
2022-10-03T16:24:35.183Z,12.00
2022-10-03T16:27:17.113Z,11.90
2022-10-03T16:29:55.565Z,11.90
2022-10-03T16:32:27.318Z,11.90
2022-10-03T16:35:01.145Z,11.80
2022-10-03T16:37:30.720Z,11.80
2022-10-03T16:40:04.481Z,11.90
2022-10-03T16:42:50.777Z,11.80
2022-10-03T16:45:26.916Z,11.60
2022-10-03T16:48:17.723Z,11.70
2022-10-03T16:50:52.101Z,11.60
2022-10-03T16:53:22.400Z,11.50
2022-10-03T16:55:59.906Z,11.20
2022-10-03T16:58:36.312Z,11.20
2022-10-03T17:01:31.903Z,10.90
2022-10-03T17:04:02.474Z,10.60
2022-10-03T17:06:36.877Z,10.60
2022-10-03T17:09:14.862Z,10.70
2022-10-03T17:11:46.547Z,11.10
2022-10-03T17:14:19.379Z,11.20
2022-10-03T17:16:50.047Z,10.40
2022-10-03T17:19:42.611Z,10.20
2022-10-03T17:22:15.203Z,10.00
2022-10-03T17:25:00.634Z,10.00
2022-10-03T17:27:34.727Z,10.00
2022-10-03T17:30:25.630Z,10.00
2022-10-03T17:33:18.690Z,9.50
2022-10-03T17:36:15.536Z,9.30
2022-10-03T17:39:02.244Z,9.60
2022-10-03T17:42:02.276Z,9.30
2022-10-03T17:44:38.394Z,9.00
2022-10-03T17:47:18.936Z,9.30
2022-10-03T17:50:07.902Z,9.30
2022-10-03T17:52:41.453Z,9.40
2022-10-03T17:55:20.739Z,9.10
2022-10-03T17:57:53.448Z,9.20
2022-10-03T18:00:24.995Z,9.30
2022-10-03T18:03:05.518Z,9.40
2022-10-03T18:05:51.552Z,9.10
2022-10-03T18:08:40.426Z,9.10
2022-10-03T18:11:10.189Z,8.90
2022-10-03T18:13:43.014Z,8.80
2022-10-03T18:16:28.594Z,8.80
2022-10-03T18:19:09.439Z,8.80
2022-10-03T18:22:07.714Z,8.80
2022-10-03T18:24:54.081Z,8.80
2022-10-03T18:27:37.719Z,8.60
2022-10-03T18:30:18.147Z,8.40
2022-10-03T18:32:46.820Z,8.50
2022-10-03T18:35:21.788Z,8.50
2022-10-03T18:37:55.828Z,8.50
2022-10-03T18:40:30.915Z,8.40
2022-10-03T18:43:00.919Z,8.40
2022-10-03T18:45:33.242Z,8.40
2022-10-03T18:48:16.855Z,8.20
2022-10-03T18:50:54.271Z,8.20
2022-10-03T18:53:34.843Z,8.20
2022-10-03T18:56:18.662Z,8.20
2022-10-03T18:58:55.309Z,8.10
2022-10-03T19:01:37.112Z,8.10
2022-10-03T19:04:30.111Z,8.10
2022-10-03T19:06:59.242Z,8.10
2022-10-03T19:09:30.995Z,8.00
2022-10-03T19:12:23.730Z,7.80
2022-10-03T19:15:19.697Z,7.70
2022-10-03T19:18:11.764Z,7.80
2022-10-03T19:20:43.582Z,7.80
2022-10-03T19:23:14.123Z,7.80
2022-10-03T19:25:43.796Z,7.70
2022-10-03T19:28:31.524Z,7.70
2022-10-03T19:31:24.913Z,7.70
2022-10-03T19:34:03.742Z,7.60
2022-10-03T19:36:37.325Z,7.50
2022-10-03T19:39:05.643Z,7.50
2022-10-03T19:41:46.488Z,7.40
2022-10-03T19:44:17.217Z,7.20
2022-10-03T19:47:02.953Z,7.20
2022-10-03T19:49:45.702Z,7.20
2022-10-03T19:52:31.627Z,7.00
2022-10-03T19:55:12.074Z,7.00
2022-10-03T19:57:42.910Z,6.90
2022-10-03T20:00:17.378Z,6.80
2022-10-03T20:02:51.635Z,6.80
2022-10-03T20:05:53.554Z,6.80
2022-10-03T20:08:46.571Z,6.80
2022-10-03T20:11:23.197Z,6.50
2022-10-03T20:13:51.766Z,6.30
2022-10-03T20:16:23.200Z,6.40
2022-10-03T20:18:54.043Z,6.30
2022-10-03T20:21:26.099Z,6.20
2022-10-03T20:23:55.488Z,6.20
2022-10-03T20:26:52.957Z,6.00
2022-10-03T20:29:31.358Z,6.20
2022-10-03T20:32:04.098Z,5.90
2022-10-03T20:34:35.949Z,5.90
2022-10-03T20:37:18.793Z,6.00
2022-10-03T20:39:48.145Z,5.90
2022-10-03T20:42:26.537Z,5.90
2022-10-03T20:45:01.916Z,5.80
2022-10-03T20:47:48.274Z,5.80
2022-10-03T20:50:22.492Z,5.70
2022-10-03T20:52:58.559Z,5.70
2022-10-03T20:56:00.462Z,5.60
2022-10-03T20:58:30.869Z,5.70
2022-10-03T21:01:21.438Z,5.60
2022-10-03T21:04:15.000Z,5.70
2022-10-03T21:07:00.608Z,5.60
2022-10-03T21:10:02.517Z,5.60
2022-10-03T21:12:41.314Z,5.30
2022-10-03T21:15:29.730Z,5.30
2022-10-03T21:17:58.708Z,5.30
2022-10-03T21:20:38.770Z,5.40
2022-10-03T21:23:17.478Z,5.30
2022-10-03T21:25:45.526Z,5.40
2022-10-03T21:28:31.551Z,5.30
2022-10-03T21:31:20.975Z,5.20
2022-10-03T21:34:00.420Z,5.10
2022-10-03T21:36:51.460Z,5.20
2022-10-03T21:39:41.007Z,5.20
2022-10-03T21:42:18.486Z,5.10
2022-10-03T21:44:59.040Z,5.10
2022-10-03T21:48:00.223Z,5.20
2022-10-03T21:50:36.713Z,5.20
2022-10-03T21:53:07.326Z,5.20
2022-10-03T21:55:56.618Z,5.10
2022-10-03T21:58:52.694Z,5.10
2022-10-03T22:01:52.611Z,5.10
2022-10-03T22:04:22.622Z,5.10
2022-10-03T22:07:02.888Z,4.70
2022-10-03T22:09:31.082Z,4.80
2022-10-03T22:12:02.819Z,4.90
2022-10-03T22:14:30.394Z,4.80
2022-10-03T22:17:32.936Z,4.80
2022-10-03T22:20:12.869Z,4.80
2022-10-03T22:23:02.746Z,4.80
2022-10-03T22:25:49.186Z,4.70
2022-10-03T22:28:25.755Z,4.60
2022-10-03T22:31:19.146Z,4.70
2022-10-03T22:34:07.257Z,4.50
2022-10-03T22:36:37.591Z,4.40
2022-10-03T22:39:14.554Z,4.50
2022-10-03T22:41:44.809Z,4.50
2022-10-03T22:44:14.716Z,4.70
2022-10-03T22:46:47.644Z,4.50
2022-10-03T22:49:17.082Z,4.50
2022-10-03T22:51:46.678Z,4.40
2022-10-03T22:54:17.501Z,4.30
2022-10-03T22:57:18.205Z,4.50
2022-10-03T23:00:13.381Z,4.60
2022-10-03T23:02:50.581Z,4.60
2022-10-03T23:05:31.079Z,4.40
2022-10-03T23:08:30.298Z,4.30
2022-10-03T23:11:04.200Z,4.40
2022-10-03T23:13:39.546Z,4.50
2022-10-03T23:16:28.843Z,4.60
2022-10-03T23:18:59.407Z,4.50
2022-10-03T23:21:27.496Z,4.10
2022-10-03T23:24:08.501Z,4.20
2022-10-03T23:26:45.139Z,4.30
2022-10-03T23:29:17.742Z,3.90
2022-10-03T23:32:02.341Z,3.90
2022-10-03T23:34:38.734Z,4.00
2022-10-03T23:37:15.168Z,4.10
2022-10-03T23:39:53.637Z,4.10
2022-10-03T23:42:41.324Z,4.10
2022-10-03T23:45:11.918Z,4.10
2022-10-03T23:47:41.384Z,4.10
2022-10-03T23:50:09.746Z,4.10
2022-10-03T23:52:50.865Z,4.00
2022-10-03T23:55:27.080Z,4.00
2022-10-03T23:57:55.107Z,4.00
